Latest Coastal Weather Observations for Rhyll

IDV60701

Issued at 12:31 am EDT Monday 30 March 2015 (issued every 10 minutes, with the page automatically refreshed every 10 minutes)

About coastal observations | Map of coastal stations | Coastal observations for VIC | Marine services | Other Formats
Station Details ID: 086373 Name: RHYLL Lat: -38.46 Lon: 145.31 Height: 13.4 m
Data from the previous 72 hours. | See also: Recent months at Rhyll
Date/Time
EDT
Temp

°C
Wind Pressure Rain
since 9am
mm
Weather Cloud Vis
km
Sea
Height
m
Swell
Dir
 
Speed
knots
Gust
knots
hPa Trend Height
m
Period
s
Dir
30/12:30am 14.3 NNE 2 5 1023.7 - 0.0 - - - - - - -
30/12:00am 14.4 NE 6 8 1023.7 - 0.0 - - - - - - -
 
Date/Time
EDT
Temp

°C
Wind Pressure Rain
since 9am
mm
Weather Cloud Vis
km
Sea
Height
m
Swell
Dir
 
Speed
knots
Gust
knots
hPa Trend Height
m
Period
s
Dir
29/11:30pm 14.6 NNE 4 8 1023.9 - 0.0 - - - - - - -
29/11:00pm 14.8 NNE 2 4 1024.0 - 0.0 - - - - - - -
29/10:30pm 14.3 CALM 0 0 1023.9 - 0.0 - - - - - - -
29/10:00pm 14.4 S 1 1 1023.8 - 0.0 - - - - - - -
29/09:30pm 15.1 SSW 2 3 1023.6 - 0.0 - - - - - - -
29/09:00pm 15.4 SSW 2 3 1023.3 - 0.0 - - - - - - -
29/08:30pm 15.5 SW 3 4 1022.9 - 0.0 - - - - - - -
29/08:00pm 15.9 SSW 3 5 1022.7 - 0.0 - - - - - - -
29/07:30pm 16.3 SSW 4 6 1022.3 - 0.0 - - - - - - -
29/07:00pm 16.8 SSW 6 11 1021.9 - 0.0 - - - - - - -
29/06:30pm 18.4 S 5 9 1021.5 - 0.0 - - - - - - -
29/06:00pm 18.6 S 6 9 1021.2 - 0.0 - - - - - - -
29/05:30pm 19.1 S 6 12 1021.0 - 0.0 - - - - - - -
29/05:00pm 19.2 SSW 7 13 1021.0 - 0.0 - - - - - - -
29/04:30pm 19.3 SSW 7 12 1021.0 - 0.0 - - - - - - -
29/04:00pm 20.1 SSW 7 11 1021.1 - 0.0 - - - - - - -
29/03:30pm 20.1 SW 6 12 1021.2 - 0.0 - - - - - - -
29/03:00pm 20.1 WSW 6 11 1021.4 - 0.0 - - - - - - -
29/02:30pm 19.9 WSW 5 11 1021.7 - 0.0 - - - - - - -
29/02:00pm 19.5 W 6 10 1021.8 - 0.0 - - - - - - -
29/01:30pm 19.9 WNW 5 10 1022.0 - 0.0 - - - - - - -
29/01:00pm 19.4 WNW 6 9 1022.3 - 0.0 - - - - - - -
29/12:30pm 19.5 WNW 5 10 1022.5 - 0.0 - - - - - - -
29/12:00pm 18.5 NW 5 8 1022.6 - 0.0 - - - - - - -
29/11:30am 17.8 NNW 6 8 1022.6 - 0.0 - - - - - - -
29/11:00am 16.3 N 6 8 1022.9 - 0.0 - - - - - - -
29/10:30am 15.6 NNW 6 8 1022.9 - 0.0 - - - - - - -
29/10:00am 15.4 NNE 4 8 1022.9 - 0.0 - - - - - - -
29/09:30am 14.1 NNE 4 8 1022.8 - 0.0 - - - - - - -
29/09:00am 12.8 N 7 9 1022.8 - 0.0 - - - - - - -
29/08:30am 12.4 N 7 10 1022.7 - 0.0 - - - - - - -
29/08:00am 12.4 N 8 11 1022.3 - 0.0 - - - - - - -
29/07:30am 12.2 NNW 8 10 1021.9 - 0.0 - - - - - - -
29/07:00am 12.2 NNW 6 9 1021.8 - 0.0 - - - - - - -
29/06:30am 12.0 NNW 4 6 1021.5 - 0.0 - - - - - - -
29/06:00am 12.3 NNW 5 8 1021.1 - 0.0 - - - - - - -
29/05:30am 12.3 NNW 5 7 1020.8 - 0.0 - - - - - - -
29/05:00am 12.1 NNW 3 7 1020.8 - 0.0 - - - - - - -
29/04:30am 12.0 WNW 2 4 1020.6 - 0.0 - - - - - - -
29/04:00am 12.1 NW 2 5 1020.5 - 0.0 - - - - - - -
29/03:30am 12.6 NNW 3 7 1020.6 - 0.0 - - - - - - -
29/03:00am 12.9 NW 2 4 1021.1 - 0.0 - - - - - - -
29/02:30am 13.3 N 4 6 1021.3 - 0.0 - - - - - - -
29/02:00am 13.3 N 4 6 1021.6 - 0.0 - - - - - - -
29/01:30am 13.6 NNW 2 3 1021.9 - 0.0 - - - - - - -
29/01:00am 13.6 NNW 1 2 1022.1 - 0.0 - - - - - - -
29/12:30am 12.9 NW 2 5 1022.4 - 0.0 - - - - - - -
29/12:00am 12.8 NW 2 3 1022.5 - 0.0 - - - - - - -
 
Date/Time
EDT
Temp

°C
Wind Pressure Rain
since 9am
mm
Weather Cloud Vis
km
Sea
Height
m
Swell
Dir
 
Speed
knots
Gust
knots
hPa Trend Height
m
Period
s
Dir
28/11:30pm 12.9 W 1 2 1022.4 - 0.0 - - - - - - -
28/11:00pm 13.1 WSW 2 2 1022.6 - 0.0 - - - - - - -
28/10:30pm 13.3 WSW 3 3 1022.6 - 0.0 - - - - - - -
28/10:00pm 13.5 WSW 3 4 1022.7 - 0.0 - - - - - - -
28/09:30pm 13.5 WSW 3 3 1022.7 - 0.0 - - - - - - -
28/09:00pm 13.6 WSW 3 3 1022.6 - 0.0 - - - - - - -
28/08:30pm 13.9 WSW 3 4 1022.5 - 0.0 - - - - - - -
28/08:00pm 14.1 WSW 3 4 1022.3 - 0.0 - - - - - - -
28/07:30pm 14.3 SW 3 3 1022.3 - 0.0 - - - - - - -
28/07:00pm 15.3 SW 3 5 1022.3 - 0.0 - - - - - - -
28/06:30pm 16.7 SSW 1 5 1022.4 - 0.0 - - - - - - -
28/06:00pm 17.1 S 1 4 1022.4 - 0.0 - - - - - - -
28/05:30pm 15.8 N 3 4 1022.8 - 0.0 - - - - - - -
28/05:00pm 15.8 N 4 5 1022.8 - 0.0 - - - - - - -
28/04:30pm 15.9 N 3 5 1023.0 - 0.0 - - - - - - -
28/04:00pm 16.3 NW 2 5 1023.3 - 0.0 - - - - - - -
28/03:30pm 15.9 WSW 3 5 1023.4 - 0.0 - - - - - - -
28/03:00pm 15.9 W 3 6 1023.8 - 0.0 - - - - - - -
28/02:30pm 15.3 W 4 7 1023.9 - 0.0 - - - - - - -
28/02:00pm 15.4 W 4 7 1024.3 - 0.0 - - - - - - -
28/01:30pm 15.0 W 4 8 1024.5 - 0.0 - - - - - - -
28/01:00pm 15.3 NNW 6 8 1024.8 - 0.0 - - - - - - -
28/12:30pm 16.3 WSW 4 8 1025.0 - 0.0 - - - - - - -
28/12:00pm 14.8 W 4 7 1025.3 - 0.0 - - - - - - -
28/11:30am 14.2 NNW 3 4 1025.4 - 0.0 - - - - - - -
28/11:00am 14.6 SSE 1 5 1025.6 - 0.0 - - - - - - -
28/10:30am 16.0 SSE 3 5 1025.7 - 0.0 - - - - - - -
28/10:00am 15.1 S 3 5 1025.7 - 0.0 - - - - - - -
28/09:30am 14.1 SW 5 7 1025.6 - 0.0 - - - - - - -
28/09:00am 14.3 W 3 6 1025.3 - 1.6 - - - - - - -
28/08:30am 13.0 W 3 5 1025.1 - 1.6 - - - - - - -
28/08:00am 13.2 W 3 5 1024.7 - 1.6 - - - - - - -
28/07:30am 13.3 W 3 5 1024.5 - 1.6 - - - - - - -
28/07:00am 13.4 WSW 3 5 1024.3 - 1.6 - - - - - - -
28/06:30am 13.4 W 2 3 1024.2 - 1.6 - - - - - - -
28/06:00am 13.5 W 1 3 1024.1 - 1.6 - - - - - - -
28/05:30am 13.4 SW 6 9 1024.0 - 1.6 - - - - - - -
28/05:00am 14.0 SW 4 11 1023.8 - 1.6 - - - - - - -
28/04:30am 14.1 SW 5 7 1023.7 - 1.6 - - - - - - -
28/04:00am 14.1 SW 5 7 1023.6 - 1.6 - - - - - - -
28/03:30am 14.0 SW 5 9 1023.7 - 1.6 - - - - - - -
28/03:00am 14.4 WSW 5 9 1023.7 - 1.6 - - - - - - -
28/02:30am 14.5 SW 5 9 1023.8 - 1.6 - - - - - - -
28/02:00am 14.5 WSW 6 10 1024.0 - 1.6 - - - - - - -
28/01:30am 14.4 SW 6 9 1024.0 - 1.6 - - - - - - -
28/01:00am 14.6 SW 6 10 1024.0 - 1.6 - - - - - - -
28/12:30am 14.8 SW 9 15 1024.0 - 1.6 - - - - - - -
28/12:00am 14.7 SW 8 14 1024.1 - 1.6 - - - - - - -
 
Date/Time
EDT
Temp

°C
Wind Pressure Rain
since 9am
mm
Weather Cloud Vis
km
Sea
Height
m
Swell
Dir
 
Speed
knots
Gust
knots
hPa Trend Height
m
Period
s
Dir
27/11:30pm 14.8 SW 8 12 1024.3 - 1.6 - - - - - - -
27/11:00pm 14.0 WSW 5 10 1024.4 - 1.6 - - - - - - -
27/10:30pm 14.1 WSW 7 13 1024.3 - 1.6 - - - - - - -
27/10:00pm 14.5 WSW 6 12 1024.2 - 1.6 - - - - - - -
27/09:30pm 14.1 WSW 4 10 1024.2 - 1.6 - - - - - - -
27/09:00pm 13.7 WSW 4 8 1024.1 - 1.6 - - - - - - -
27/08:30pm 14.1 WSW 6 18 1023.9 - 1.6 - - - - - - -
27/08:00pm 13.8 WSW 4 9 1023.6 - 1.6 - - - - - - -
27/07:30pm 13.9 WSW 8 13 1023.5 - 1.2 - - - - - - -
27/07:00pm 14.7 WSW 4 8 1023.1 - 1.2 - - - - - - -
27/06:30pm 14.3 WSW 6 10 1023.0 - 1.2 - - - - - - -
27/06:00pm 14.6 WSW 10 17 1022.8 - 1.2 - - - - - - -
27/05:30pm 15.1 WSW 9 15 1022.4 - 1.2 - - - - - - -
27/05:00pm 15.1 WSW 8 18 1022.3 - 1.2 - - - - - - -
27/04:30pm 14.3 WSW 8 15 1022.2 - 1.2 - - - - - - -
27/04:00pm 15.0 WSW 10 18 1022.0 - 0.8 - - - - - - -
27/03:30pm 15.5 WSW 10 19 1022.2 - 0.8 - - - - - - -
27/03:00pm 15.7 WSW 10 21 1022.1 - 0.8 - - - - - - -
27/02:30pm 15.3 WSW 10 21 1022.3 - 0.8 - - - - - - -
27/02:00pm 14.7 WSW 10 19 1022.4 - 0.8 - - - - - - -
27/01:30pm 14.5 WSW 12 26 1022.6 - 0.8 - - - - - - -
27/01:00pm 15.0 WSW 12 22 1022.6 - 0.8 - - - - - - -
27/12:30pm 14.2 WSW 9 18 1022.6 - 0.8 - - - - - - -
27/12:00pm 14.8 WSW 11 22 1022.3 - 0.8 - - - - - - -
27/11:30am 14.9 WSW 10 21 1022.0 - 0.8 - - - - - - -
27/11:00am 14.0 WSW 13 23 1022.0 - 0.8 - - - - - - -
27/10:30am 14.7 WSW 12 23 1021.5 - 0.8 - - - - - - -
27/10:00am 13.9 WSW 11 19 1021.2 - 0.8 - - - - - - -
27/09:30am 13.5 WSW 12 24 1020.7 - 0.8 - - - - - - -
27/09:00am 13.5 WSW 9 17 1020.5 - 28.2 Recent precip. - - - - - -
27/08:30am 13.3 WSW 10 21 1019.9 - 28.0 - - - - - - -
27/08:00am 13.4 WSW 12 25 1019.3 - 27.8 - - - - - - -
27/07:30am 12.7 WSW 11 22 1019.1 - 27.8 - - - - - - -
27/07:00am 13.4 WSW 12 26 1018.5 - 27.2 - - - - - - -
27/06:30am 13.9 WSW 12 21 1018.0 - 27.2 - - - - - - -
27/06:00am 13.8 WSW 12 19 1017.8 - 27.2 - - - - - - -
27/05:30am 13.6 W 12 22 1017.7 - 27.2 - - - - - - -
27/05:00am 12.4 WSW 7 13 1017.6 - 27.2 - - - - - - -
27/04:30am 12.3 SW 10 16 1017.5 - 25.0 - - - - - - -
27/04:00am 12.0 WSW 9 17 1017.4 - 24.0 - - - - - - -
27/03:30am 13.9 WSW 10 19 1017.1 - 20.0 - - - - - - -
27/03:00am 14.1 WSW 10 21 1017.1 - 20.0 - - - - - - -
27/02:30am 13.5 WSW 8 16 1017.0 - 20.0 - - - - - - -
27/02:00am 13.1 W 9 18 1016.7 - 20.0 - - - - - - -
27/01:30am 12.7 W 6 11 1016.7 - 20.0 - - - - - - -
27/01:00am 13.0 WNW 7 15 1016.4 - 13.8 - - - - - - -

Other Formats:

Comma delimited format used in spreadsheet applications
http://www.bom.gov.au/fwo/IDV60701/IDV60701.94892.axf

JavaScript Object Notation format (JSON) in row-major order
http://www.bom.gov.au/fwo/IDV60701/IDV60701.94892.json